Landels-Hill Big Creek Reserve Entrance, California Weather observations

Data are for 10 minute period ending at time listed.
 Day   Time   Solar   Ave.   Ave.  Ave.  Vector  Max.   Baro.   Total    
  of    of     Rad.   Air    Rel.  Wind   Wind   Wind  Press.  Precip.   
Year   Day            Temp.  Hum.  Speed  Dir.   Gust                    
2014   (PST)  Kw/m2    F      %     mph   deg.    mph    mb.     in.     
-------------------------------------------------------------------------
 241   16:00   0.49   67.4    76    2.9   200     7.4   1009.3    0.00 
 241   16:10   0.46   67.3    75    3.5   196     8.0   1009.2    0.00 
 241   16:20   0.43   66.8    76    3.6   196     9.8   1009.2    0.00 
 241   16:30   0.39   66.3    78    3.7   186    10.5   1009.2    0.00 
 241   16:40   0.35   66.1    78    3.3   179     9.1   1009.1    0.00 
 241   16:50   0.32   66.1    79    2.3   202     6.9   1009.0    0.00 
 241   17:00   0.29   67.2    76    1.9   202     3.9   1008.7    0.00 
 241   17:10   0.24   67.3    76    1.8   209     4.2   1008.6    0.00 
 241   17:20   0.18   66.2    79    1.8   198     3.9   1008.6    0.00 
 241   17:30   0.11   65.6    80    0.6   231     2.5   1008.5    0.00 
 241   17:40   0.03   64.3    82    1.6   282     3.9   1008.0    0.00 
 241   17:50   0.04   63.1    86    3.5   265     6.3   1007.7    0.00 
 241   18:00   0.03   63.0    86    2.1   309     5.5   1007.4    0.00 
 241   18:10   0.02   62.8    87    2.5   278     5.3   1007.3    0.00 
 241   18:20   0.01   62.8    87    0.9   212     2.7   1006.9    0.00 
 241   18:30   0.01   63.0    87    1.5   232     3.9   1007.0    0.00 
 241   18:40   0.00   62.7    88    0.5   307     1.4   1007.1    0.00 
 241   18:50   0.00   62.3    88    1.4   358     3.6   1007.1    0.00 
 241   19:00   0.00   61.8    88    1.0   359     3.0   1007.1    0.00 
 241   19:10   0.00   61.5    89    0.4   349     1.7   1007.2    0.00 
 241   19:20   0.00   61.2    89    0.2   339     1.0   1007.3    0.00 
 241   19:30   0.00   60.8    89    1.0   356     3.1   1007.3    0.00 
 241   19:40   0.00   60.7    90    1.2    64     4.3   1007.2    0.00 
 241   19:50   0.00   61.1    90    0.4   109     2.5   1007.4    0.00 
 241   20:00   0.00   60.7    90    0.4   355     2.2   1007.4    0.00 
 241   20:10   0.00   60.4    90    0.5     0     2.6   1007.7    0.00 
 241   20:20   0.00   60.2    90    0.4   353     2.0   1007.7    0.00 
 241   20:30   0.00   60.0    91    0.3    72     1.2   1007.8    0.00 
 241   20:40   0.00   60.0    91    0.2    46     1.2   1007.9    0.00 
 241   20:50   0.00   59.6    91    1.5    17     4.2   1007.8    0.00 
 241   21:00   0.00   59.7    91    0.5    67     2.3   1007.7    0.00 
 241   21:10   0.00   59.9    91    0.6    15     1.7   1007.7    0.00 
 241   21:20   0.00   59.8    91    0.4     2     2.1   1007.9    0.00 
 241   21:30   0.00   60.4    92    1.0    14     3.1   1008.0    0.00 
 241   21:40   0.00   59.9    92    1.1    20     3.6   1007.9    0.00 
 241   21:50   0.00   59.6    92    0.8    20     2.6   1007.9    0.00 
 241   22:00   0.00   59.4    92    1.8    27     7.2   1007.8    0.00 
 241   22:10   0.00   59.8    91    0.9   358     2.9   1007.8    0.00 
 241   22:20   0.00   59.4    91    2.1   129     6.6   1008.0    0.00 
 241   22:30   0.00   61.0    92    2.5    47     5.3   1008.3    0.00 
 241   22:40   0.00   61.1    92    1.7    17     5.7   1008.1    0.00 
 241   22:50   0.00   59.7    91    2.2    38     6.1   1007.8    0.00 
 241   23:00   0.00   59.9    90    1.7   115     5.6   1007.9    0.00 
 241   23:10   0.00   59.5    87    0.8    26     2.3   1008.0    0.00 
 241   23:20   0.00   59.0    87    0.6     7     1.8   1008.2    0.00 
 241   23:30   0.00   58.5    88    1.4    20     4.2   1008.0    0.00 
 241   23:40   0.00   58.5    88    2.3    63     5.3   1007.6    0.00 
 241   23:50   0.00   59.4    85    0.8    56     2.4   1007.9    0.00 
 242    0:00   0.00   60.7    88    1.9    69     4.1   1008.0    0.00 
 242    0:10   0.00   59.8    87    1.8     6     5.4   1007.9    0.00 
 242    0:20   0.00   58.9    86    2.3    44     5.7   1007.7    0.00 
 242    0:30   0.00   59.3    81    3.0    57     7.2   1007.5    0.00 
 242    0:40   0.00   59.6    78    1.0    23     2.6   1007.8    0.00 
 242    0:50   0.00   60.3    80    1.6    27     3.3   1007.8    0.00 
 242    1:00   0.00   59.1    80    2.0    14     4.4   1007.8    0.00 
 242    1:10   0.00   58.3    80    3.0    39     6.9   1007.3    0.00 
 242    1:20   0.00   59.3    76    1.5    50     5.5   1007.3    0.00 
 242    1:30   0.00   60.2    79    2.0    65     3.6   1007.6    0.00 
 242    1:40   0.00   62.5    80    2.0   150     5.0   1007.6    0.00 
 242    1:50   0.00   59.0    79    1.4    44     3.7   1007.4    0.00 
 242    2:00   0.00   58.3    80    1.3    15     4.0   1007.3    0.00 
 242    2:10   0.00   57.7    80    1.5    16     4.2   1007.2    0.00 
 242    2:20   0.00   57.5    80    1.3     6     2.6   1007.4    0.00 
 242    2:30   0.00   56.9    81    1.4     2     3.6   1007.5    0.00 
 242    2:40   0.00   56.6    83    1.7    26     4.0   1007.6    0.00 
 242    2:50   0.00   56.8    82    1.6     4     3.5   1007.8    0.00 
 242    3:00   0.00   56.5    82    1.5    30     3.6   1007.6    0.00 
 242    3:10   0.00   57.6    81    1.7    37     5.4   1007.3    0.00 
 242    3:20   0.00   57.2    80    1.5     4     4.1   1007.2    0.00 
 242    3:30   0.00   56.9    80    1.3    15     2.8   1007.3    0.00 
 242    3:40   0.00   58.4    83    1.8    96     4.1   1007.7    0.00 
 242    3:50   0.00   61.2    86    1.9    89     3.8   1007.7    0.00 
 242    4:00   0.00   58.9    82    2.0    18     4.8   1007.4    0.00 
 242    4:10   0.00   58.0    81    1.2    37     4.2   1007.2    0.00 
 242    4:20   0.00   57.5    80    1.6   357     4.9   1007.3    0.00 
 242    4:30   0.00   57.3    80    1.7    39     4.2   1007.3    0.00 
 242    4:40   0.00   57.1    79    1.0    24     3.9   1007.3    0.00 
 242    4:50   0.00   56.9    78    1.8     2     3.4   1007.3    0.00 
 242    5:00   0.00   56.8    79    1.4    24     3.7   1007.4    0.00 
 242    5:10   0.00   56.6    79    1.0    30     2.5   1007.5    0.00 
 242    5:20   0.00   56.4    80    1.1    12     3.6   1007.5    0.00 
 242    5:30   0.00   56.2    80    1.4     6     3.5   1007.6    0.00 
 242    5:40   0.00   55.9    81    1.9    17     4.8   1007.6    0.00 
 242    5:50   0.01   56.7    80    1.7    42     3.7   1007.9    0.00 
 242    6:00   0.01   56.5    79    1.7    20     4.2   1008.0    0.00 
 242    6:10   0.02   57.5    78    1.0    79     2.9   1008.1    0.00 
 242    6:20   0.03   57.6    76    1.1     9     2.8   1008.1    0.00 
 242    6:30   0.04   58.1    75    1.3    29     3.3   1008.3    0.00 
 242    6:40   0.04   57.8    77    1.2     2     3.7   1008.4    0.00 
 242    6:50   0.03   58.0    78    1.2    24     3.5   1008.2    0.00 
 242    7:00   0.01   59.1    76    0.8   112     3.8   1008.2    0.00 
 242    7:10   0.01   60.6    78    0.7    94     2.3   1008.2    0.00 
 242    7:20   0.01   59.8    78    0.8   357     2.9   1008.2    0.00 
 242    7:30   0.03   58.7    81    0.7    34     2.7   1008.1    0.00 
 242    7:40   0.03   59.4    84    1.1   155     4.4   1008.2    0.00 
 242    7:50   0.04   61.0    87    1.2   161     3.1   1008.1    0.00 
 242    8:00   0.04   60.4    86    0.4    90     1.5   1008.0    0.00 
 242    8:10   0.03   60.8    88    1.9   165     3.3   1008.0    0.00 
 242    8:20   0.03   61.3    89    2.3   172     3.7   1008.0    0.00 
 242    8:30   0.03   61.2    90    1.1   207     3.0   1008.0    0.00 
 242    8:40   0.03   61.2    90    1.9   157     4.1   1008.1    0.00 
 242    8:50   0.03   60.7    91    2.6   150     4.1   1008.3    0.00 
 242    9:00   0.03   61.0    91    1.0   153     2.5   1008.2    0.00 
 242    9:10   0.04   61.4    90    2.1   135     3.1   1008.2    0.00 
 242    9:20   0.46   62.0    90    2.2   149     3.5   1008.2    0.00 
 242    9:30   0.61   63.5    87    2.9   142     4.6   1008.2    0.00 
 242    9:40   0.64   65.2    82    1.7   179     3.8   1008.2    0.00 
 242    9:50   0.67   66.0    80    1.8   216     4.2   1008.5    0.00 
 242   10:00   0.69   66.4    79    1.4   207     3.4   1008.8    0.00 
 242   10:10   0.71   67.6    76    1.6   212     3.5   1008.7    0.00 
 242   10:20   0.73   67.7    76    2.1   222     5.1   1008.7    0.00 
 242   10:30   0.76   67.9    74    1.9   206     4.5   1008.9    0.00 
 242   10:40   0.78   67.7    75    2.6   225     5.0   1008.9    0.00 
 242   10:50   0.79   68.1    74    2.7   255     7.7   1008.8    0.00 
 242   11:00   0.81   67.0    78    2.6   268     6.2   1008.8    0.00 
 242   11:10   0.82   67.1    78    2.9   256     6.2   1008.7    0.00 
 242   11:20   0.83   66.5    79    3.0   240     5.9   1008.7    0.00 
 242   11:30   0.85   66.6    79    3.3   251     5.9   1008.5    0.00 
 242   11:40   0.85   67.4    76    2.2   243     5.8   1008.5    0.00 
 242   11:50   0.85   67.3    76    3.0   273     5.3   1008.4    0.00 
 242   12:00   0.79   67.5    76    2.5   290     5.6   1008.3    0.00 
 242   12:10   0.88   67.7    75    3.5   275     6.9   1008.2    0.00 
 242   12:20   0.88   68.0    74    3.5   268     7.7   1008.2    0.00 
 242   12:30   0.90   68.1    72    4.9   268     9.1   1007.9    0.00 
 242   12:40   0.89   68.3    71    3.4   261     8.2   1007.9    0.00 
 242   12:50   0.88   69.4    69    4.7   261     9.9   1007.8    0.00 
 242   13:00   0.72   69.2    69    3.4   268     8.7   1007.9    0.00 
 242   13:10   0.82   69.2    70    3.2   266     7.1   1007.9    0.00 
 242   13:20   0.75   69.6    69    2.8   269     6.9   1007.9    0.00 
 242   13:30   0.80   69.1    70    3.2   266     7.6   1007.8    0.00 
 242   13:40   0.80   70.2    68    1.6   222     5.5   1007.9    0.00 
 242   13:50   0.73   71.2    64    2.5   231     7.6   1008.0    0.00 
 242   14:00   0.85   71.3    64    2.2   251     6.1   1008.0    0.00 
 242   14:10   0.75   71.5    63    2.2   191     6.7   1007.9    0.00 
 242   14:20   0.80   72.6    61    2.2   249     4.7   1007.9    0.00 
 242   14:30   0.71   72.5    61    3.1   191     7.1   1008.0    0.00 
 242   14:40   0.73   73.3    60    3.2   191     7.4   1007.9    0.00 
 242   14:50   0.70   73.7    59    3.5   210     8.9   1007.9    0.00 
 242   15:00   0.60   72.4    62    3.2   239     8.3   1008.0    0.00 
 242   15:10   0.55   71.5    63    3.1   216     8.6   1008.1    0.00 
 242   15:20   0.53   71.5    63    3.1   200     9.1   1008.1    0.00 
 242   15:30   0.37   69.9    66    3.6   188     9.8   1008.2    0.00 
 242   15:40   0.41   69.5    68    2.8   201     6.6   1008.1    0.00 
 242   15:50   0.32   69.7    68    3.4   201     8.0   1008.1    0.00 

Return to Big Creek Reserve Entrance graphs page.


Western Regional Climate Center,wrcc@dri.edu